createdAt,value
2018-04-30T00:01:58.738Z,2.90
2018-04-30T00:04:27.197Z,2.90
2018-04-30T00:06:55.671Z,2.70
2018-04-30T00:09:24.188Z,3.00
2018-04-30T00:11:52.692Z,3.27
2018-04-30T00:14:21.129Z,2.83
2018-04-30T00:16:49.628Z,3.17
2018-04-30T00:19:18.139Z,3.40
2018-04-30T00:21:46.640Z,3.10
2018-04-30T00:24:15.140Z,3.00
2018-04-30T00:26:43.608Z,3.40
2018-04-30T00:29:12.096Z,3.47
2018-04-30T00:31:40.549Z,3.77
2018-04-30T00:34:09.040Z,3.53
2018-04-30T00:36:37.498Z,3.77
2018-04-30T00:39:06.024Z,3.80
2018-04-30T00:41:34.519Z,3.87
2018-04-30T00:44:03.046Z,3.57
2018-04-30T00:46:31.501Z,3.70
2018-04-30T00:48:59.952Z,3.80
2018-04-30T00:51:28.467Z,3.87
2018-04-30T00:53:56.913Z,4.20
2018-04-30T00:56:25.356Z,3.83
2018-04-30T00:58:53.812Z,3.70
2018-04-30T01:01:22.310Z,4.10
2018-04-30T01:03:50.765Z,4.63
2018-04-30T01:06:19.262Z,4.50
2018-04-30T01:08:47.729Z,4.73
2018-04-30T01:11:16.212Z,4.17
2018-04-30T01:13:44.712Z,4.23
2018-04-30T01:16:13.256Z,4.33
2018-04-30T01:18:41.804Z,3.70
2018-04-30T01:21:10.264Z,4.30
2018-04-30T01:23:39.237Z,4.03
2018-04-30T01:26:07.696Z,4.00
2018-04-30T01:28:36.208Z,3.97
2018-04-30T01:31:04.692Z,4.10
2018-04-30T01:33:33.188Z,4.50
2018-04-30T01:36:01.684Z,4.60
2018-04-30T01:38:30.149Z,4.10
2018-04-30T01:40:58.610Z,4.83
2018-04-30T01:43:27.078Z,4.40
2018-04-30T01:45:55.525Z,4.50
2018-04-30T01:48:24.024Z,4.20
2018-04-30T01:50:52.470Z,4.70
2018-04-30T01:53:20.937Z,4.87
2018-04-30T01:55:49.424Z,4.70
2018-04-30T01:58:17.914Z,4.17
2018-04-30T02:00:46.392Z,5.03
2018-04-30T02:03:14.901Z,9.73
2018-04-30T02:05:43.414Z,5.30
2018-04-30T02:08:11.882Z,4.70
2018-04-30T02:10:40.386Z,5.27
2018-04-30T02:13:08.869Z,4.70
2018-04-30T02:15:37.331Z,4.70
2018-04-30T02:18:05.830Z,5.10
2018-04-30T02:20:34.320Z,4.73
2018-04-30T02:23:02.763Z,4.97
2018-04-30T02:25:31.277Z,5.10
2018-04-30T02:27:59.797Z,5.30
2018-04-30T02:30:28.252Z,5.03
2018-04-30T02:32:56.716Z,5.33
2018-04-30T02:35:25.259Z,6.10
2018-04-30T02:37:53.712Z,5.80
2018-04-30T02:40:22.213Z,5.30
2018-04-30T02:42:50.708Z,5.07
2018-04-30T02:45:19.164Z,5.07
2018-04-30T02:47:47.625Z,5.50
2018-04-30T02:50:16.054Z,5.50
2018-04-30T02:52:44.550Z,6.50
2018-04-30T02:55:13.013Z,5.43
2018-04-30T02:57:41.500Z,6.03
2018-04-30T03:00:09.980Z,5.93
2018-04-30T03:02:38.452Z,6.30
2018-04-30T03:05:06.933Z,5.73
2018-04-30T03:07:35.390Z,5.87
2018-04-30T03:10:03.911Z,5.83
2018-04-30T03:12:32.376Z,6.20
2018-04-30T03:15:00.845Z,5.57
2018-04-30T03:17:29.357Z,6.57
2018-04-30T03:19:57.838Z,6.13
2018-04-30T03:22:26.325Z,6.27
2018-04-30T03:24:54.781Z,5.93
2018-04-30T03:27:23.365Z,5.77
2018-04-30T03:29:51.802Z,6.63
2018-04-30T03:32:20.245Z,6.20
2018-04-30T03:34:48.779Z,5.70
2018-04-30T03:37:17.221Z,6.33
2018-04-30T03:39:45.660Z,6.10
2018-04-30T03:42:14.136Z,5.63
2018-04-30T03:44:42.588Z,6.17
2018-04-30T03:47:11.122Z,5.90
2018-04-30T03:49:39.612Z,5.50
2018-04-30T03:52:08.089Z,6.00
2018-04-30T03:54:36.571Z,5.83
2018-04-30T03:57:05.026Z,6.07
2018-04-30T03:59:33.508Z,6.57
2018-04-30T04:02:13.620Z,6.80
2018-04-30T04:04:53.869Z,7.30
2018-04-30T04:07:22.384Z,7.37
2018-04-30T04:09:50.840Z,6.77
2018-04-30T04:12:19.330Z,7.90
2018-04-30T04:14:47.821Z,7.50
2018-04-30T04:17:16.307Z,8.20
2018-04-30T04:19:44.809Z,7.30
2018-04-30T04:22:13.292Z,7.00
2018-04-30T04:24:41.754Z,6.40
2018-04-30T04:27:10.244Z,5.93
2018-04-30T04:29:38.709Z,6.73
2018-04-30T04:32:07.247Z,6.83
2018-04-30T04:34:35.700Z,7.30
2018-04-30T04:37:04.190Z,6.70
2018-04-30T04:39:32.650Z,7.00
2018-04-30T04:42:01.118Z,7.70
2018-04-30T04:44:29.612Z,6.90
2018-04-30T04:46:58.085Z,7.53
2018-04-30T04:49:26.584Z,7.73
2018-04-30T04:51:55.093Z,8.03
2018-04-30T04:54:23.608Z,8.20
2018-04-30T04:56:52.064Z,8.83
2018-04-30T04:59:20.512Z,8.33
2018-04-30T05:01:49.009Z,8.90
2018-04-30T05:04:17.499Z,8.30
2018-04-30T05:06:45.997Z,9.30
2018-04-30T05:09:14.473Z,10.43
2018-04-30T05:11:42.940Z,10.70
2018-04-30T05:14:11.455Z,9.93
2018-04-30T05:16:39.936Z,8.23
2018-04-30T05:19:08.433Z,8.93
2018-04-30T05:21:36.892Z,8.10
2018-04-30T05:24:05.430Z,7.80
2018-04-30T05:26:35.718Z,7.23
2018-04-30T05:29:04.212Z,7.17
2018-04-30T05:31:32.817Z,7.93
2018-04-30T05:34:01.298Z,7.33
2018-04-30T05:36:29.800Z,6.67
2018-04-30T05:38:58.304Z,7.50
2018-04-30T05:41:27.116Z,7.77
2018-04-30T05:43:55.611Z,8.90
2018-04-30T05:46:24.122Z,7.53
2018-04-30T05:48:52.623Z,7.57
2018-04-30T05:51:21.183Z,7.00
2018-04-30T05:53:49.734Z,7.40
2018-04-30T05:56:18.290Z,10.67
2018-04-30T05:58:46.903Z,6.77
2018-04-30T06:01:15.402Z,6.63
2018-04-30T06:03:43.865Z,7.20
2018-04-30T06:06:12.376Z,8.00
2018-04-30T06:08:40.816Z,6.13
2018-04-30T06:11:09.277Z,5.37
2018-04-30T06:13:37.775Z,7.43
2018-04-30T06:16:06.256Z,7.10
2018-04-30T06:18:34.776Z,7.47
2018-04-30T06:21:03.266Z,6.33
2018-04-30T06:23:32.647Z,6.90
2018-04-30T06:26:01.172Z,5.63
2018-04-30T06:28:29.714Z,6.67
2018-04-30T06:30:58.201Z,5.83
2018-04-30T06:33:26.672Z,6.30
2018-04-30T06:35:55.291Z,6.50
2018-04-30T06:38:23.710Z,5.87
2018-04-30T06:40:52.152Z,5.73
2018-04-30T06:43:20.646Z,6.27
2018-04-30T06:45:49.125Z,5.67
2018-04-30T06:48:17.654Z,5.93
2018-04-30T06:50:46.130Z,5.57
2018-04-30T06:53:14.638Z,6.57
2018-04-30T06:55:43.140Z,5.83
2018-04-30T06:58:11.595Z,5.40
2018-04-30T07:00:40.087Z,5.73
2018-04-30T07:03:08.533Z,5.50
2018-04-30T07:05:37.016Z,5.70
2018-04-30T07:08:05.509Z,5.67
2018-04-30T07:10:33.956Z,5.83
2018-04-30T07:13:02.495Z,5.47
2018-04-30T07:15:31.009Z,5.60
2018-04-30T07:17:59.488Z,5.17
2018-04-30T07:20:27.955Z,4.90
2018-04-30T07:22:56.445Z,5.40
2018-04-30T07:25:24.893Z,7.20
2018-04-30T07:27:53.457Z,5.40
2018-04-30T07:30:21.884Z,5.90
2018-04-30T07:32:50.365Z,5.07
2018-04-30T07:35:18.811Z,5.73
2018-04-30T07:37:47.294Z,4.90
2018-04-30T07:40:15.741Z,4.70
2018-04-30T07:42:44.185Z,4.70
2018-04-30T07:45:12.704Z,4.33
2018-04-30T07:47:41.169Z,4.53
2018-04-30T07:50:09.601Z,5.37
2018-04-30T07:52:38.744Z,4.40
2018-04-30T07:55:07.305Z,5.47
2018-04-30T07:57:35.795Z,4.63
2018-04-30T08:00:04.325Z,4.60
2018-04-30T08:02:32.781Z,5.57
2018-04-30T08:05:01.273Z,6.77
2018-04-30T08:07:29.765Z,4.80
2018-04-30T08:09:58.334Z,5.10
2018-04-30T08:12:26.868Z,5.80
2018-04-30T08:14:55.423Z,6.40
2018-04-30T08:17:23.881Z,5.30
2018-04-30T08:19:52.392Z,4.77
2018-04-30T08:22:20.839Z,5.10
2018-04-30T08:24:49.280Z,5.27
2018-04-30T08:27:17.778Z,5.50
2018-04-30T08:29:46.283Z,9.07
2018-04-30T08:32:14.745Z,7.17
2018-04-30T08:34:43.277Z,6.97
2018-04-30T08:37:11.766Z,5.70
2018-04-30T08:39:40.300Z,5.37
2018-04-30T08:42:08.800Z,6.67
2018-04-30T08:44:37.363Z,5.87
2018-04-30T08:47:05.812Z,6.83
2018-04-30T08:49:34.262Z,7.57
2018-04-30T08:52:02.862Z,6.30
2018-04-30T08:54:31.336Z,5.70
2018-04-30T08:56:59.872Z,6.23
2018-04-30T08:59:28.324Z,5.90
2018-04-30T09:01:56.889Z,7.30
2018-04-30T09:04:25.365Z,7.50
2018-04-30T09:06:53.825Z,5.63
2018-04-30T09:09:22.314Z,5.97
2018-04-30T09:11:50.771Z,5.80
2018-04-30T09:14:19.261Z,5.77
2018-04-30T09:16:47.735Z,5.60
2018-04-30T09:19:16.220Z,5.53
2018-04-30T09:21:44.697Z,5.63
2018-04-30T09:24:13.191Z,5.93
2018-04-30T09:26:41.708Z,6.03
2018-04-30T09:29:10.216Z,6.03
2018-04-30T09:31:38.702Z,5.57
2018-04-30T09:34:07.189Z,5.80
2018-04-30T09:36:35.669Z,6.30
2018-04-30T09:39:04.210Z,6.40
2018-04-30T09:41:32.736Z,5.90
2018-04-30T09:46:22.408Z,6.00
2018-04-30T09:48:50.857Z,6.87
2018-04-30T09:51:19.300Z,6.60
2018-04-30T09:53:47.812Z,6.30
2018-04-30T09:56:16.357Z,5.97
2018-04-30T09:58:44.800Z,6.47
2018-04-30T10:01:13.289Z,6.47
2018-04-30T10:03:41.756Z,6.13
2018-04-30T10:06:10.218Z,6.17
2018-04-30T10:08:38.704Z,5.77
2018-04-30T10:11:07.221Z,6.40
2018-04-30T10:13:35.684Z,6.67
2018-04-30T10:16:04.132Z,6.10
2018-04-30T10:18:32.626Z,5.93
2018-04-30T10:21:01.169Z,5.80
2018-04-30T10:23:29.776Z,5.93
2018-04-30T10:25:58.220Z,6.07
2018-04-30T10:28:26.789Z,6.33
2018-04-30T10:30:55.242Z,6.27
2018-04-30T10:33:23.681Z,6.27
2018-04-30T10:35:52.165Z,6.37
2018-04-30T10:38:20.668Z,6.00
2018-04-30T10:40:49.154Z,6.10
2018-04-30T10:43:17.643Z,5.80
2018-04-30T10:45:46.119Z,5.87
2018-04-30T10:48:14.588Z,6.60
2018-04-30T10:50:43.028Z,6.13
2018-04-30T10:53:11.521Z,6.00
2018-04-30T10:55:40.021Z,5.93
2018-04-30T10:58:08.496Z,6.20
2018-04-30T11:00:36.952Z,5.87
2018-04-30T11:03:05.443Z,6.47
2018-04-30T11:05:33.899Z,6.43
2018-04-30T11:08:02.382Z,5.83
2018-04-30T11:10:30.881Z,6.00
2018-04-30T11:12:59.357Z,6.23
2018-04-30T11:15:27.836Z,6.43
2018-04-30T11:17:56.281Z,7.10
2018-04-30T11:20:24.757Z,6.20
2018-04-30T11:22:53.196Z,6.30
2018-04-30T11:25:21.691Z,6.23
2018-04-30T11:27:50.132Z,6.23
2018-04-30T11:30:18.609Z,6.10
2018-04-30T11:32:47.116Z,5.93
2018-04-30T11:35:15.569Z,5.80
2018-04-30T11:37:44.082Z,5.90
2018-04-30T11:40:12.633Z,5.90
2018-04-30T11:42:41.134Z,5.60
2018-04-30T11:45:09.613Z,5.50
2018-04-30T11:47:38.082Z,6.10
2018-04-30T11:50:06.634Z,6.40
2018-04-30T11:52:35.093Z,5.87
2018-04-30T11:55:03.595Z,6.20
2018-04-30T11:57:32.082Z,5.93
2018-04-30T12:00:00.606Z,6.40
2018-04-30T12:02:29.128Z,6.60
2018-04-30T12:04:57.632Z,6.60
2018-04-30T12:07:26.116Z,7.03
2018-04-30T12:09:54.578Z,6.67
2018-04-30T12:12:23.085Z,6.90
2018-04-30T12:14:51.591Z,7.30
2018-04-30T12:17:20.053Z,6.27
2018-04-30T12:19:48.552Z,6.87
2018-04-30T12:22:17.076Z,7.17
2018-04-30T12:24:45.582Z,6.93
2018-04-30T12:27:14.083Z,6.97
2018-04-30T12:29:42.967Z,6.80
2018-04-30T12:32:11.415Z,6.47
2018-04-30T12:34:39.868Z,7.07
2018-04-30T12:37:08.369Z,7.47
2018-04-30T12:39:36.864Z,7.83
2018-04-30T12:42:05.364Z,7.90
2018-04-30T12:44:33.820Z,7.73
2018-04-30T12:47:02.283Z,7.30
2018-04-30T12:49:30.847Z,6.97
2018-04-30T12:51:59.357Z,6.87
2018-04-30T12:54:27.819Z,7.57
2018-04-30T12:56:56.327Z,7.40
2018-04-30T12:59:24.825Z,7.57
2018-04-30T13:01:53.372Z,7.93
2018-04-30T13:04:21.893Z,8.03
2018-04-30T13:06:50.382Z,7.73
2018-04-30T13:09:18.831Z,7.67
2018-04-30T13:11:47.331Z,6.77
2018-04-30T13:14:15.849Z,7.50
2018-04-30T13:16:44.369Z,7.40
2018-04-30T13:19:12.856Z,7.22
2018-04-30T13:21:41.344Z,7.17
2018-04-30T13:24:09.802Z,7.33
2018-04-30T13:26:38.344Z,8.53
2018-04-30T13:29:06.787Z,8.00
2018-04-30T13:31:35.237Z,9.47
2018-04-30T13:34:03.696Z,7.70
2018-04-30T13:36:32.206Z,6.20
2018-04-30T13:39:00.658Z,7.10
2018-04-30T13:41:29.120Z,7.50
2018-04-30T13:43:57.777Z,6.93
2018-04-30T13:46:26.411Z,7.37
2018-04-30T13:48:55.025Z,8.50
2018-04-30T13:51:23.517Z,6.60
2018-04-30T13:53:52.011Z,6.70
2018-04-30T13:56:20.456Z,11.07
2018-04-30T13:58:48.944Z,6.50
2018-04-30T14:01:17.535Z,6.37
2018-04-30T14:03:46.005Z,9.07
2018-04-30T14:06:14.463Z,6.70
2018-04-30T14:08:42.940Z,5.93
2018-04-30T14:11:11.384Z,7.07
2018-04-30T14:13:39.870Z,6.83
2018-04-30T14:16:08.368Z,5.57
2018-04-30T14:18:36.822Z,8.97
2018-04-30T14:21:05.352Z,6.97
2018-04-30T14:23:33.819Z,6.53
2018-04-30T14:26:02.305Z,5.47
2018-04-30T14:28:30.819Z,4.63
2018-04-30T14:30:59.269Z,5.00
2018-04-30T14:33:28.234Z,4.90
2018-04-30T14:35:56.784Z,5.10
2018-04-30T14:38:25.275Z,6.07
2018-04-30T14:40:53.753Z,5.47
2018-04-30T14:43:22.196Z,5.10
2018-04-30T14:45:50.772Z,4.90
2018-04-30T14:48:19.212Z,5.93
2018-04-30T14:50:47.661Z,5.80
2018-04-30T14:53:16.141Z,5.20
2018-04-30T14:55:44.612Z,5.00
2018-04-30T14:58:13.060Z,5.20
2018-04-30T15:00:41.580Z,4.57
2018-04-30T15:03:10.020Z,5.33
2018-04-30T15:05:38.472Z,5.37
2018-04-30T15:08:06.956Z,5.03
2018-04-30T15:10:35.418Z,5.90
2018-04-30T15:13:03.896Z,5.20
2018-04-30T15:15:32.337Z,4.67
2018-04-30T15:18:00.808Z,5.20
2018-04-30T15:20:29.294Z,4.83
2018-04-30T15:22:57.741Z,5.70
2018-04-30T15:25:26.233Z,5.47
2018-04-30T15:27:54.677Z,5.30
2018-04-30T15:30:23.115Z,5.70
2018-04-30T15:32:51.604Z,6.07
2018-04-30T15:35:20.029Z,5.90
2018-04-30T15:37:48.501Z,5.63
2018-04-30T15:40:16.949Z,5.40
2018-04-30T15:42:45.392Z,6.07
2018-04-30T15:45:13.903Z,5.57
2018-04-30T15:47:42.352Z,5.90
2018-04-30T15:50:10.792Z,5.90
2018-04-30T15:52:39.290Z,5.87
2018-04-30T15:55:07.799Z,6.10
2018-04-30T15:57:36.233Z,5.73
2018-04-30T16:00:04.713Z,5.80
2018-04-30T16:02:33.166Z,5.80
2018-04-30T16:05:01.649Z,5.70
2018-04-30T16:07:30.144Z,6.27
2018-04-30T16:09:58.676Z,6.17
2018-04-30T16:12:27.133Z,6.10
2018-04-30T16:14:55.613Z,6.17
2018-04-30T16:17:24.056Z,6.43
2018-04-30T16:19:52.549Z,6.77
2018-04-30T16:22:20.995Z,6.70
2018-04-30T16:24:49.481Z,6.40
2018-04-30T16:27:18.096Z,6.13
2018-04-30T16:29:46.539Z,6.50
2018-04-30T16:32:15.040Z,6.90
2018-04-30T16:34:43.520Z,6.77
2018-04-30T16:37:12.000Z,6.47
2018-04-30T16:39:40.546Z,7.20
2018-04-30T16:42:08.989Z,7.20
2018-04-30T16:44:37.468Z,8.13
2018-04-30T16:47:05.990Z,9.90
2018-04-30T16:49:34.470Z,8.50
2018-04-30T16:52:02.924Z,8.53
2018-04-30T16:54:31.414Z,7.40
2018-04-30T16:56:59.900Z,7.53
2018-04-30T16:59:28.380Z,8.13
2018-04-30T17:01:56.824Z,6.77
2018-04-30T17:04:25.337Z,7.10
2018-04-30T17:06:53.788Z,7.30
2018-04-30T17:09:22.260Z,7.53
2018-04-30T17:11:50.775Z,7.30
2018-04-30T17:14:19.220Z,7.13
2018-04-30T17:16:47.705Z,7.47
2018-04-30T17:19:16.192Z,7.60
2018-04-30T17:21:44.634Z,7.33
2018-04-30T17:24:13.096Z,8.70
2018-04-30T17:26:41.609Z,7.93
2018-04-30T17:29:10.108Z,7.87
2018-04-30T17:31:38.580Z,7.50
2018-04-30T17:34:07.072Z,7.73
2018-04-30T17:36:35.601Z,8.03
2018-04-30T17:39:04.085Z,8.00
2018-04-30T17:41:32.575Z,8.63
2018-04-30T17:44:01.149Z,8.37
2018-04-30T17:46:29.592Z,8.50
2018-04-30T17:48:58.028Z,7.90
2018-04-30T17:51:26.508Z,8.07
2018-04-30T17:53:54.952Z,8.50
2018-04-30T17:56:23.448Z,9.33
2018-04-30T17:58:51.954Z,10.17
2018-04-30T18:01:20.426Z,10.07
2018-04-30T18:03:48.876Z,8.10
2018-04-30T18:06:17.458Z,9.67
2018-04-30T18:08:45.908Z,10.57
2018-04-30T18:11:14.393Z,10.93
2018-04-30T18:13:42.876Z,12.27
2018-04-30T18:16:11.324Z,11.33
2018-04-30T18:18:40.444Z,10.87
2018-04-30T18:21:08.892Z,11.37
2018-04-30T18:23:37.340Z,9.30
2018-04-30T18:26:05.868Z,8.77
2018-04-30T18:28:34.335Z,9.27
2018-04-30T18:31:02.818Z,9.70
2018-04-30T18:33:31.294Z,9.13
2018-04-30T18:35:59.772Z,8.73
2018-04-30T18:38:28.256Z,8.93
2018-04-30T18:40:56.740Z,9.57
2018-04-30T18:43:25.217Z,9.90
2018-04-30T18:45:53.717Z,9.73
2018-04-30T18:48:22.204Z,10.53
2018-04-30T18:50:50.684Z,9.53
2018-04-30T18:53:19.169Z,10.50
2018-04-30T18:55:47.636Z,10.37
2018-04-30T18:58:16.121Z,10.20
2018-04-30T19:00:44.611Z,10.60
2018-04-30T19:03:13.068Z,11.43
2018-04-30T19:05:41.559Z,17.03
2018-04-30T19:08:10.064Z,13.87
2018-04-30T19:10:38.544Z,10.47
2018-04-30T19:13:07.013Z,11.30
2018-04-30T19:15:35.484Z,10.97
2018-04-30T19:18:03.994Z,10.57
2018-04-30T19:20:32.480Z,10.33
2018-04-30T19:23:00.940Z,9.30
2018-04-30T19:25:29.428Z,9.47
2018-04-30T19:27:57.880Z,9.63
2018-04-30T19:30:26.365Z,9.93
2018-04-30T19:32:54.825Z,9.93
2018-04-30T19:35:23.318Z,9.67
2018-04-30T19:37:51.809Z,10.23
2018-04-30T19:40:20.275Z,10.33
2018-04-30T19:42:48.728Z,10.87
2018-04-30T19:45:17.237Z,11.10
2018-04-30T19:47:45.725Z,10.80
2018-04-30T19:50:14.172Z,11.27
2018-04-30T19:52:42.672Z,10.50
2018-04-30T19:55:11.157Z,10.43
2018-04-30T19:57:39.612Z,10.87
2018-04-30T20:00:08.061Z,10.43
2018-04-30T20:02:36.549Z,9.77
2018-04-30T20:05:05.024Z,9.50
2018-04-30T20:07:33.504Z,10.20
2018-04-30T20:10:01.956Z,10.87
2018-04-30T20:12:30.445Z,9.77
2018-04-30T20:14:58.910Z,10.33
2018-04-30T20:17:27.403Z,9.90
2018-04-30T20:19:55.896Z,10.00
2018-04-30T20:22:24.348Z,10.13
2018-04-30T20:24:52.841Z,9.60
2018-04-30T20:27:21.293Z,10.53
2018-04-30T20:29:49.781Z,9.47
2018-04-30T20:32:18.257Z,9.90
2018-04-30T20:34:46.732Z,9.63
2018-04-30T20:37:15.224Z,10.50
2018-04-30T20:39:43.710Z,10.87
2018-04-30T20:42:12.208Z,10.57
2018-04-30T20:44:40.696Z,10.50
2018-04-30T20:47:09.161Z,10.73
2018-04-30T20:49:37.641Z,10.27
2018-04-30T20:52:06.140Z,9.77
2018-04-30T20:54:34.589Z,9.57
2018-04-30T20:57:03.043Z,9.23
2018-04-30T20:59:31.528Z,9.83
2018-04-30T21:02:00.014Z,9.27
2018-04-30T21:04:28.476Z,9.30
2018-04-30T21:06:56.961Z,8.33
2018-04-30T21:09:25.442Z,9.00
2018-04-30T21:11:53.955Z,9.70
2018-04-30T21:14:22.397Z,8.60
2018-04-30T21:16:50.881Z,9.23
2018-04-30T21:19:19.364Z,8.47
2018-04-30T21:21:47.817Z,9.43
2018-04-30T21:24:16.385Z,10.50
2018-04-30T21:26:44.848Z,11.77
2018-04-30T21:29:13.340Z,11.53
2018-04-30T21:31:41.798Z,12.27
2018-04-30T21:34:10.300Z,11.77
2018-04-30T21:36:38.755Z,12.43
2018-04-30T21:39:07.263Z,12.07
2018-04-30T21:41:35.753Z,11.83
2018-04-30T21:44:04.244Z,11.93
2018-04-30T21:46:32.829Z,12.70
2018-04-30T21:49:01.321Z,12.33
2018-04-30T21:51:29.774Z,12.77
2018-04-30T21:53:58.276Z,13.13
2018-04-30T21:56:26.761Z,14.33
2018-04-30T21:58:55.208Z,14.30
2018-04-30T22:01:23.701Z,15.17
2018-04-30T22:03:52.184Z,14.67
2018-04-30T22:06:20.688Z,14.03
2018-04-30T22:08:49.141Z,15.87
2018-04-30T22:11:17.644Z,15.77
2018-04-30T22:13:46.140Z,15.33
2018-04-30T22:16:14.593Z,15.90
2018-04-30T22:18:43.077Z,15.20
2018-04-30T22:21:11.532Z,16.27
2018-04-30T22:23:40.045Z,14.73
2018-04-30T22:26:08.520Z,14.50
2018-04-30T22:28:36.996Z,15.00
2018-04-30T22:31:05.512Z,13.13
2018-04-30T22:33:34.035Z,13.17
2018-04-30T22:36:02.520Z,12.57
2018-04-30T22:38:31.013Z,12.83
2018-04-30T22:40:59.476Z,13.33
2018-04-30T22:43:27.963Z,12.63
2018-04-30T22:45:56.423Z,12.53
2018-04-30T22:48:24.932Z,12.97
2018-04-30T22:50:53.398Z,13.50
2018-04-30T22:53:21.868Z,12.27
2018-04-30T22:55:50.372Z,13.53
2018-04-30T22:58:18.839Z,13.30
2018-04-30T23:00:47.340Z,13.67
2018-04-30T23:03:15.832Z,12.87
2018-04-30T23:05:44.336Z,13.83
2018-04-30T23:08:12.806Z,13.23
2018-04-30T23:10:41.319Z,14.50
2018-04-30T23:13:09.809Z,13.50
2018-04-30T23:15:38.301Z,14.13
2018-04-30T23:18:06.817Z,13.53
2018-04-30T23:20:35.280Z,13.73
2018-04-30T23:23:03.748Z,13.77
2018-04-30T23:25:32.252Z,12.90
2018-04-30T23:28:00.716Z,12.57
2018-04-30T23:30:29.228Z,12.40
2018-04-30T23:32:57.741Z,12.47
2018-04-30T23:35:26.196Z,12.90
2018-04-30T23:37:54.702Z,12.37
2018-04-30T23:40:23.226Z,12.63
2018-04-30T23:42:51.724Z,12.30
2018-04-30T23:45:20.246Z,11.70
2018-04-30T23:47:48.721Z,12.90
2018-04-30T23:50:17.203Z,13.13
2018-04-30T23:52:45.714Z,12.50
2018-04-30T23:55:14.170Z,13.63
2018-04-30T23:57:42.642Z,23.97
